createdAt,value
2022-08-05T00:05:00.954Z,19.05
2022-08-05T00:10:10.749Z,18.96
2022-08-05T00:15:56.099Z,19.06
2022-08-05T00:20:36.451Z,18.97
2022-08-05T00:25:46.011Z,18.94
2022-08-05T00:30:52.116Z,18.93
2022-08-05T00:36:16.109Z,19.01
2022-08-05T00:41:52.053Z,18.83
2022-08-05T00:47:01.602Z,18.76
2022-08-05T00:52:07.034Z,18.83
2022-08-05T00:57:11.231Z,18.75
2022-08-05T01:02:14.053Z,18.77
2022-08-05T01:07:19.515Z,18.85
2022-08-05T01:12:29.829Z,18.87
2022-08-05T01:17:40.311Z,18.99
2022-08-05T01:23:14.409Z,19.03
2022-08-05T01:28:25.631Z,19.05
2022-08-05T01:33:35.490Z,18.98
2022-08-05T01:38:39.413Z,18.99
2022-08-05T01:43:44.191Z,19.22
2022-08-05T01:48:55.667Z,19.17
2022-08-05T01:54:02.127Z,19.12
2022-08-05T01:59:11.059Z,19.05
2022-08-05T02:04:17.830Z,19.00
2022-08-05T02:09:20.978Z,18.89
2022-08-05T02:14:31.906Z,18.73
2022-08-05T02:19:46.983Z,18.75
2022-08-05T02:24:54.195Z,18.80
2022-08-05T02:30:02.039Z,18.66
2022-08-05T02:35:15.036Z,18.54
2022-08-05T02:40:27.458Z,18.79
2022-08-05T02:45:52.977Z,18.96
2022-08-05T02:50:58.602Z,18.23
2022-08-05T02:56:03.363Z,17.98
2022-08-05T03:01:19.365Z,17.68
2022-08-05T03:06:55.668Z,17.66
2022-08-05T03:11:56.620Z,17.77
2022-08-05T03:17:06.095Z,17.65
2022-08-05T03:22:16.723Z,17.55
2022-08-05T03:27:22.472Z,17.48
2022-08-05T03:32:34.209Z,17.42
2022-08-05T03:37:46.212Z,17.35
2022-08-05T03:42:52.565Z,17.21
2022-08-05T03:47:58.353Z,17.29
2022-08-05T03:55:51.034Z,17.35
2022-08-05T03:58:36.551Z,17.26
2022-08-05T04:04:09.179Z,17.37
2022-08-05T04:09:08.521Z,17.39
2022-08-05T04:14:11.666Z,17.49
2022-08-05T04:19:22.595Z,17.49
2022-08-05T04:24:26.261Z,17.36
2022-08-05T04:29:30.571Z,17.54
2022-08-05T04:34:42.971Z,17.43
2022-08-05T04:39:46.350Z,17.40
2022-08-05T04:44:55.817Z,17.47
2022-08-05T04:50:02.582Z,17.54
2022-08-05T04:55:15.215Z,17.40
2022-08-05T05:00:19.246Z,17.57
2022-08-05T05:05:29.147Z,17.64
2022-08-05T05:10:33.773Z,17.69
2022-08-05T05:15:56.689Z,17.81
2022-08-05T05:21:01.166Z,17.91
2022-08-05T05:26:04.095Z,18.46
2022-08-05T05:31:08.968Z,18.57
2022-08-05T05:36:13.245Z,18.79
2022-08-05T05:41:17.595Z,18.64
2022-08-05T05:46:21.894Z,18.25
2022-08-05T05:51:28.054Z,18.28
2022-08-05T05:56:34.572Z,18.01
2022-08-05T06:01:40.108Z,17.96
2022-08-05T06:06:47.339Z,17.99
2022-08-05T06:11:59.245Z,18.03
2022-08-05T06:17:21.898Z,18.51
2022-08-05T06:22:30.011Z,19.03
2022-08-05T06:28:11.407Z,19.23
2022-08-05T06:32:55.731Z,19.75
2022-08-05T06:38:04.279Z,19.83
2022-08-05T06:43:59.831Z,20.75
2022-08-05T06:48:55.689Z,21.91
2022-08-05T06:54:04.201Z,22.11
2022-08-05T06:59:09.902Z,21.81
2022-08-05T07:04:14.676Z,21.65
2022-08-05T07:09:24.843Z,21.03
2022-08-05T07:14:45.476Z,20.56
2022-08-05T07:20:16.657Z,20.53
2022-08-05T07:25:54.391Z,20.52
2022-08-05T07:30:38.679Z,20.05
2022-08-05T07:36:04.400Z,19.81
2022-08-05T07:42:08.760Z,19.87
2022-08-05T07:46:33.763Z,19.87
2022-08-05T07:51:48.583Z,19.70
2022-08-05T07:57:14.602Z,19.71
2022-08-05T08:02:26.812Z,18.97
2022-08-05T08:07:39.582Z,19.26
2022-08-05T08:12:58.784Z,19.11
2022-08-05T08:18:02.032Z,19.00
2022-08-05T08:23:07.471Z,19.20
2022-08-05T08:28:36.808Z,19.25
2022-08-05T08:33:54.427Z,19.36
2022-08-05T08:38:57.515Z,19.15
2022-08-05T08:45:18.599Z,19.14
2022-08-05T08:50:18.072Z,19.08
2022-08-05T08:54:56.914Z,19.10
2022-08-05T09:00:02.174Z,19.02
2022-08-05T09:05:17.509Z,19.26
2022-08-05T09:10:21.960Z,19.24
2022-08-05T09:15:32.352Z,18.81
2022-08-05T09:20:41.739Z,18.80
2022-08-05T09:25:59.970Z,19.04
2022-08-05T09:31:44.139Z,19.13
2022-08-05T09:36:45.927Z,19.54
2022-08-05T09:42:01.790Z,19.54
2022-08-05T09:47:15.531Z,19.42
2022-08-05T09:52:25.840Z,19.80
2022-08-05T09:57:35.233Z,20.05
2022-08-05T10:02:45.451Z,19.75
2022-08-05T10:08:35.538Z,19.80
2022-08-05T10:13:31.841Z,19.59
2022-08-05T10:18:49.730Z,19.19
2022-08-05T10:24:00.309Z,19.23
2022-08-05T10:29:03.730Z,19.13
2022-08-05T10:34:08.715Z,18.85
2022-08-05T10:40:03.219Z,18.78
2022-08-05T10:45:00.626Z,18.42
2022-08-05T10:50:32.176Z,18.70
2022-08-05T10:56:03.389Z,18.90
2022-08-05T11:01:03.139Z,18.71
2022-08-05T11:06:16.210Z,18.30
2022-08-05T11:11:44.858Z,18.39
2022-08-05T11:17:59.859Z,18.47
2022-08-05T11:22:58.066Z,18.00
2022-08-05T11:28:43.158Z,18.33
2022-08-05T11:33:58.625Z,18.22
2022-08-05T11:39:02.902Z,18.73
2022-08-05T11:44:08.491Z,18.34
2022-08-05T11:49:14.619Z,17.88
2022-08-05T11:54:33.094Z,18.19
2022-08-05T11:59:49.471Z,18.73
2022-08-05T12:04:59.330Z,19.01
2022-08-05T12:10:06.370Z,19.76
2022-08-05T12:15:20.772Z,19.32
2022-08-05T12:20:41.583Z,19.06
2022-08-05T12:25:53.554Z,19.63
2022-08-05T12:30:57.703Z,19.83
2022-08-05T12:36:08.181Z,20.31
2022-08-05T12:41:16.129Z,20.92
2022-08-05T12:46:28.124Z,21.00
2022-08-05T12:52:12.081Z,20.32
2022-08-05T12:56:58.734Z,20.58
2022-08-05T13:02:07.684Z,20.93
2022-08-05T13:07:16.114Z,21.91
2022-08-05T13:12:23.032Z,21.43
2022-08-05T13:17:41.674Z,22.16
2022-08-05T13:22:49.827Z,21.80
2022-08-05T13:27:56.090Z,22.20
2022-08-05T13:33:01.647Z,22.17
2022-08-05T13:38:06.033Z,22.94
2022-08-05T13:43:12.257Z,22.12
2022-08-05T13:48:57.308Z,21.86
2022-08-05T13:53:48.086Z,21.57
2022-08-05T13:58:53.856Z,22.15
2022-08-05T14:04:17.055Z,21.90
2022-08-05T14:09:21.808Z,21.84
2022-08-05T14:14:30.879Z,21.64
2022-08-05T14:19:55.281Z,22.27
2022-08-05T14:24:59.358Z,21.95
2022-08-05T14:30:04.288Z,22.93
2022-08-05T14:35:10.612Z,22.35
2022-08-05T14:40:16.902Z,22.59
2022-08-05T14:45:21.402Z,22.41
2022-08-05T14:50:26.057Z,22.60
2022-08-05T14:55:39.283Z,22.39
2022-08-05T15:00:59.806Z,22.30
2022-08-05T15:06:12.935Z,22.18
2022-08-05T15:11:18.414Z,21.90
2022-08-05T15:16:23.589Z,22.37
2022-08-05T15:21:26.703Z,21.86
2022-08-05T15:26:33.394Z,21.63
2022-08-05T15:31:37.665Z,21.12
2022-08-05T15:36:40.723Z,19.44
2022-08-05T15:41:57.591Z,19.55
2022-08-05T15:47:04.251Z,18.99
2022-08-05T15:52:16.282Z,18.53
2022-08-05T15:57:20.737Z,18.32
2022-08-05T16:02:25.431Z,18.45
2022-08-05T16:07:29.649Z,18.30
2022-08-05T16:12:32.653Z,18.63
2022-08-05T16:17:36.894Z,18.36
2022-08-05T16:22:39.777Z,18.45
2022-08-05T16:28:00.831Z,18.62
2022-08-05T16:33:08.810Z,18.87
2022-08-05T16:38:18.448Z,19.02
2022-08-05T16:43:30.217Z,19.01
2022-08-05T16:48:35.621Z,19.07
2022-08-05T16:54:05.728Z,19.19
2022-08-05T16:59:07.598Z,19.17
2022-08-05T17:04:12.515Z,19.10
2022-08-05T17:09:18.172Z,18.88
2022-08-05T17:14:34.347Z,18.86
2022-08-05T17:19:43.761Z,18.70
2022-08-05T17:24:57.943Z,18.69
2022-08-05T17:30:02.370Z,18.67
2022-08-05T17:35:08.207Z,18.43
2022-08-05T17:40:22.453Z,18.46
2022-08-05T17:45:38.245Z,18.35
2022-08-05T17:50:43.179Z,18.19
2022-08-05T17:55:46.072Z,18.04
2022-08-05T18:00:51.035Z,18.09
2022-08-05T18:05:55.817Z,18.28
2022-08-05T18:11:04.982Z,17.97
2022-08-05T18:16:09.574Z,17.70
2022-08-05T18:21:20.067Z,17.49
2022-08-05T18:26:27.585Z,17.34
2022-08-05T18:31:33.140Z,17.15
2022-08-05T18:36:39.652Z,17.10
2022-08-05T18:41:56.549Z,16.84
2022-08-05T18:47:04.817Z,16.77
2022-08-05T18:52:33.154Z,16.73
2022-08-05T18:57:50.156Z,16.72
2022-08-05T19:02:57.865Z,16.42
2022-08-05T19:08:12.216Z,16.34
2022-08-05T19:13:16.935Z,16.23
2022-08-05T19:18:22.505Z,16.29
2022-08-05T19:24:05.655Z,16.13
2022-08-05T19:28:49.745Z,15.99
2022-08-05T19:33:56.539Z,16.01
2022-08-05T19:39:01.912Z,16.25
2022-08-05T19:44:12.767Z,16.29
2022-08-05T19:49:17.816Z,16.36
2022-08-05T19:54:31.226Z,16.49
2022-08-05T20:00:00.437Z,16.27
2022-08-05T20:04:58.788Z,16.01
2022-08-05T20:10:04.945Z,15.93
2022-08-05T20:15:48.987Z,15.89
2022-08-05T20:20:44.010Z,15.71
2022-08-05T20:25:49.212Z,15.67
2022-08-05T20:30:55.514Z,15.63
2022-08-05T20:35:58.539Z,15.54
2022-08-05T20:41:04.646Z,15.49
2022-08-05T20:46:18.376Z,15.44
2022-08-05T20:51:27.782Z,15.44
2022-08-05T20:56:41.911Z,15.58
2022-08-05T21:01:45.622Z,15.61
2022-08-05T21:06:48.569Z,15.48
2022-08-05T21:12:09.120Z,15.43
2022-08-05T21:17:14.737Z,15.40
2022-08-05T21:22:18.492Z,15.35
2022-08-05T21:27:27.197Z,15.36
2022-08-05T21:32:30.517Z,15.23
2022-08-05T21:37:35.005Z,15.12
2022-08-05T21:42:46.731Z,15.15
2022-08-05T21:47:55.940Z,15.26
2022-08-05T21:53:04.529Z,15.27
2022-08-05T21:58:12.705Z,15.25
2022-08-05T22:03:15.545Z,15.16
2022-08-05T22:08:28.114Z,15.08
2022-08-05T22:14:32.367Z,14.99
2022-08-05T22:19:57.344Z,14.89
2022-08-05T22:24:59.463Z,14.74
2022-08-05T22:30:04.299Z,14.72
2022-08-05T22:35:07.820Z,14.61
2022-08-05T22:40:11.156Z,14.61
2022-08-05T22:45:21.350Z,14.49
2022-08-05T22:50:27.757Z,14.48
2022-08-05T22:55:37.182Z,14.41
2022-08-05T23:00:56.825Z,14.43
2022-08-05T23:05:59.966Z,14.42
2022-08-05T23:11:03.871Z,14.41
2022-08-05T23:16:08.049Z,14.35
2022-08-05T23:21:11.323Z,14.36
2022-08-05T23:26:19.928Z,14.34
2022-08-05T23:31:25.878Z,14.38
2022-08-05T23:36:38.575Z,14.34
2022-08-05T23:41:48.596Z,14.31
2022-08-05T23:46:53.197Z,14.32
2022-08-05T23:52:16.472Z,14.21
2022-08-05T23:57:19.360Z,14.22
